Главная страница
METAR-TAF:

METAR-TAF

Аэропорты :

Ashtabula County Airport

Ashtabula, Огайо, США

широта: 41-46-46N, долгота: 080-41-48W, высота над уровнем моря: 281 м

Текущие метеонаблюдения

Эта сводка был подготовлена 38 минут назад, в 21:53 UTC
Ветер 3 Узел переменных направлений
Температура 17°C
Влажность 39%
Давление 1022 hPa
Видимость: 16.1 км
ясное небо

METAR: KHZY 212153Z AUTO VRB03KT 10SM CLR 17/03 A3017 RMK AO2 SLP218 T01670033

Время: 18:31 (22:31 UTC)


TAF: отсутствует

Метеонаблюдения и прогнозы для более 4000 аэропортов (сводки METAR и TAF).

Имеющиеся станции представлены на карте желтыми и красными точками.

Чтобы увидеть название станции, наведите на нее мышь.

Затем щелкните, чтобы увидеть метеонаблюдения и метеопрогнозы.

Управление картой: чтобы увеличить масштаб, щелкните зеленые кнопки с черным крестиком; чтобы уменьшить масштаб, щелкните зеленую кнопку с тире; для просмотра соседних карт щелкайте зеленые стрелки.


METAR-TAF: